Página principal
METAR-TAF:

METAR-TAF

Aeroportos :

Salamanca, Espanha

latitude: 40-57N, longitude: 005-30W, altura: 793 m

Observação actual do tempo

O boletim foi feito há 40 minutos, às 19:30 UTC
Vento calmo
Temperatura 1°C
Humidade 75%
Pressão 1030 hPa
Visibilidade 10 km ou mais
sem nuvens abaixo de 1500 metros e sem cumulonimbus

METAR: LESA 171930Z AUTO 00000KT CAVOK 01/M03 Q1030

Hora: 21:10 (20:10 UTC)

Previsão

O boletim foi feito há 6 horas e 10 minutos, às 14:00 UTC
Previsão válida de 17 às 15 UTC a 18 às 15 UTC
Vento 4 kt com direcção variável
Visibilidade 10 km ou mais
sem nuvens abaixo de 1500 metros e sem cumulonimbus
Probabilidade 30% :
Temporariamente
de 18 às 03 UTC a 18 às 15 UTC
Visibilidade: 3500 m
bancos de nevoeiro, neblina

TAF: LESA 171400Z 1715/1815 VRB04KT CAVOK TX11/1815Z TNM07/1807Z PROB30 TEMPO 1803/1815 3500 BCFG BR

Observações e previsões do tempo de mais de 4000 aeroportos (mensagens METAR e TAF).

As estações disponíveis são os pontos amarelos e vermelhos sobre o mapa.

Mova o rato sobre o mapa para ver o nome da estação.

Depois clique no ponto para visualizar as observações e previsões meteorológicas.

Para alterar o mapa : clique nos botões verdes com uma cruz preta para aumentar o zoom; no botão verde com uma pitada de zoom; ou nas setas verdes para mapas adjacentes.


METAR-TAF: